Time;durP1;ratioP1;P1;durP2;ratioP2;P2;SDS_P1;SDS_P2;PMS_P1;PMS_P2;Temp;Humidity;BMP_temperature;BMP_pressure;BME280_temperature;BME280_humidity;BME280_pressure;Samples;Min_cycle;Max_cycle;Signal;HPM_P1;HPM_P2
2023/04/01 00:00:30;;;;;;;;;;;14.00;99.90;;;;;;5076303;28;19957;-57
2023/04/01 00:02:56;;;;;;;;;;;13.90;99.90;;;;;;5075766;28;20254;-57
2023/04/01 00:05:24;;;;;;;;;;;13.90;99.90;;;;;;5075865;28;19920;-57
2023/04/01 00:07:50;;;;;;;;;;;13.80;99.90;;;;;;5075725;28;19913;-57
2023/04/01 00:10:15;;;;;;;;;;;13.80;99.90;;;;;;5075601;28;19998;-57
2023/04/01 00:12:41;;;;;;;;;;;13.80;99.90;;;;;;5075604;28;20353;-57
2023/04/01 00:15:08;;;;;;;;;;;13.70;99.90;;;;;;5075637;28;19925;-57
2023/04/01 00:17:34;;;;;;;;;;;13.70;99.90;;;;;;5075710;28;19916;-57
2023/04/01 00:20:00;;;;;;;;;;;13.70;99.90;;;;;;5076219;28;19919;-57
2023/04/01 00:22:26;;;;;;;;;;;13.60;99.90;;;;;;5075400;28;19999;-57
2023/04/01 00:24:53;;;;;;;;;;;13.50;99.90;;;;;;5075928;28;19958;-57
2023/04/01 00:27:19;;;;;;;;;;;13.40;99.90;;;;;;5075608;28;19912;-57
2023/04/01 00:29:45;;;;;;;;;;;13.50;99.90;;;;;;5075368;28;19912;-57
2023/04/01 00:32:11;;;;;;;;;;;13.40;99.90;;;;;;5075681;28;20350;-57
2023/04/01 00:34:37;;;;;;;;;;;13.40;99.90;;;;;;5075330;28;19927;-57
2023/04/01 00:37:03;;;;;;;;;;;13.20;99.90;;;;;;5075160;28;19915;-57
2023/04/01 00:39:30;;;;;;;;;;;13.10;99.90;;;;;;5057531;28;19912;-57
2023/04/01 00:41:56;;;;;;;;;;;13.10;99.90;;;;;;5057441;28;19913;-57
2023/04/01 00:44:23;;;;;;;;;;;13.00;99.90;;;;;;5057568;28;19917;-57
2023/04/01 00:46:49;;;;;;;;;;;13.00;99.90;;;;;;5057398;28;19970;-57
2023/04/01 00:49:17;;;;;;;;;;;13.00;99.90;;;;;;5074692;28;19916;-58
2023/04/01 00:51:44;;;;;;;;;;;13.00;99.90;;;;;;5075071;28;20007;-57
2023/04/01 00:54:11;;;;;;;;;;;12.90;99.90;;;;;;5057138;28;19917;-57
2023/04/01 00:56:40;;;;;;;;;;;13.00;99.90;;;;;;5056951;28;19927;-57
2023/04/01 00:59:14;;;;;;;;;;;12.90;99.90;;;;;;5074989;28;19912;-57
2023/04/01 01:01:40;;;;;;;;;;;13.00;99.90;;;;;;5057160;28;19913;-57
2023/04/01 01:04:06;;;;;;;;;;;12.90;99.90;;;;;;5056804;28;19916;-57
2023/04/01 01:06:39;;;;;;;;;;;12.90;99.90;;;;;;5072418;28;20427;-57
2023/04/01 01:09:21;;;;;;;;;;;12.90;99.90;;;;;;5057150;28;19997;-57
2023/04/01 01:11:49;;;;;;;;;;;12.90;99.90;;;;;;5074877;28;19916;-57
2023/04/01 01:14:38;;;;;;;;;;;13.00;99.90;;;;;;5074880;28;19923;-57
2023/04/01 01:17:10;;;;;;;;;;;13.00;99.90;;;;;;5063979;28;19916;-57
2023/04/01 01:19:51;;;;;;;;;;;12.90;99.90;;;;;;5074788;28;19913;-57
2023/04/01 01:22:25;;;;;;;;;;;12.80;99.90;;;;;;5074820;28;20455;-57
2023/04/01 01:25:26;;;;;;;;;;;12.80;99.90;;;;;;5074722;28;20011;-57
2023/04/01 01:28:02;;;;;;;;;;;12.70;99.90;;;;;;4993137;28;19948;-57
2023/04/01 01:30:31;;;;;;;;;;;12.80;99.90;;;;;;4993186;28;20030;-57
2023/04/01 01:33:09;;;;;;;;;;;12.70;99.90;;;;;;4992989;28;19917;-57
2023/04/01 01:35:38;;;;;;;;;;;12.60;99.90;;;;;;4976624;28;19953;-57
2023/04/01 01:38:12;;;;;;;;;;;12.50;99.90;;;;;;4976882;28;20162;-57
2023/04/01 01:40:42;;;;;;;;;;;12.50;99.90;;;;;;4976548;28;19918;-57
2023/04/01 01:43:10;;;;;;;;;;;12.50;99.90;;;;;;4976786;28;20049;-57
2023/04/01 01:45:39;;;;;;;;;;;12.50;99.90;;;;;;4976660;28;19920;-57
2023/04/01 01:48:06;;;;;;;;;;;12.40;99.90;;;;;;4992818;28;19917;-57
2023/04/01 01:50:33;;;;;;;;;;;12.40;99.90;;;;;;4976728;28;19922;-57
2023/04/01 01:53:03;;;;;;;;;;;12.30;99.90;;;;;;4992804;28;19941;-57
2023/04/01 01:55:30;;;;;;;;;;;12.30;99.90;;;;;;4992790;28;19961;-57
2023/04/01 01:58:02;;;;;;;;;;;12.30;99.90;;;;;;4976652;28;19913;-57
2023/04/01 02:00:28;;;;;;;;;;;12.20;99.90;;;;;;4979087;28;20304;-57
2023/04/01 02:02:56;;;;;;;;;;;12.10;99.90;;;;;;5056256;28;19915;-57
2023/04/01 02:05:24;;;;;;;;;;;11.90;99.90;;;;;;5060483;28;20071;-57
2023/04/01 02:07:57;;;;;;;;;;;12.00;99.90;;;;;;5060185;28;19913;-57
2023/04/01 02:10:24;;;;;;;;;;;11.90;99.90;;;;;;5060202;28;20015;-57
2023/04/01 02:12:50;;;;;;;;;;;11.90;99.90;;;;;;5060177;28;19908;-57
2023/04/01 02:15:16;;;;;;;;;;;11.90;99.90;;;;;;5059919;28;19920;-57
2023/04/01 02:17:44;;;;;;;;;;;12.00;99.90;;;;;;5060056;28;19919;-57
2023/04/01 02:20:29;;;;;;;;;;;11.90;99.90;;;;;;5060131;28;20441;-57
2023/04/01 02:22:57;;;;;;;;;;;11.90;99.90;;;;;;5060084;28;19912;-57
2023/04/01 02:25:24;;;;;;;;;;;11.90;99.90;;;;;;5059982;28;19919;-57
2023/04/01 02:27:51;;;;;;;;;;;11.90;99.90;;;;;;5078192;28;19920;-57
2023/04/01 02:30:17;;;;;;;;;;;11.90;99.90;;;;;;5059719;28;19923;-57
2023/04/01 02:32:43;;;;;;;;;;;11.90;99.90;;;;;;5059895;28;20356;-57
2023/04/01 02:35:11;;;;;;;;;;;11.90;99.90;;;;;;5059816;28;19917;-57
2023/04/01 02:37:37;;;;;;;;;;;11.90;99.90;;;;;;5077617;28;19956;-57
2023/04/01 02:40:06;;;;;;;;;;;11.90;99.90;;;;;;5077509;28;19916;-57
2023/04/01 02:42:32;;;;;;;;;;;11.90;99.90;;;;;;5077627;28;19919;-57
2023/04/01 02:44:57;;;;;;;;;;;11.80;99.90;;;;;;5059512;28;19914;-57
2023/04/01 02:47:23;;;;;;;;;;;11.80;99.90;;;;;;5059653;28;19920;-57
2023/04/01 02:49:49;;;;;;;;;;;11.60;99.90;;;;;;5077525;28;19919;-57
2023/04/01 02:52:15;;;;;;;;;;;11.50;99.90;;;;;;5077427;28;19970;-57
2023/04/01 02:54:40;;;;;;;;;;;11.50;99.90;;;;;;5077193;28;19921;-57
2023/04/01 02:57:06;;;;;;;;;;;11.60;99.90;;;;;;5059439;28;19935;-57
2023/04/01 02:59:32;;;;;;;;;;;11.50;99.90;;;;;;5059198;28;19928;-57
2023/04/01 03:01:58;;;;;;;;;;;11.50;99.90;;;;;;5076957;28;19912;-57
2023/04/01 03:04:24;;;;;;;;;;;11.50;99.90;;;;;;5059365;28;19939;-57
2023/04/01 03:06:51;;;;;;;;;;;11.60;99.90;;;;;;5058951;28;19913;-57
2023/04/01 03:09:16;;;;;;;;;;;11.50;99.90;;;;;;5059104;28;19916;-57
2023/04/01 03:11:42;;;;;;;;;;;11.50;99.90;;;;;;5057966;28;20002;-57
2023/04/01 03:14:08;;;;;;;;;;;11.50;99.90;;;;;;5059050;28;19919;-57
2023/04/01 03:16:34;;;;;;;;;;;11.50;99.90;;;;;;5059036;28;19970;-57
2023/04/01 03:19:01;;;;;;;;;;;11.50;99.90;;;;;;5058818;28;19912;-57
2023/04/01 03:21:28;;;;;;;;;;;11.40;99.90;;;;;;5058649;28;19912;-57
2023/04/01 03:23:54;;;;;;;;;;;11.40;99.90;;;;;;5059081;28;20278;-57
2023/04/01 03:26:21;;;;;;;;;;;11.40;99.90;;;;;;5076820;28;19920;-57
2023/04/01 03:28:47;;;;;;;;;;;11.40;99.90;;;;;;5058889;28;19916;-57
2023/04/01 03:31:13;;;;;;;;;;;11.30;99.90;;;;;;5058796;28;19938;-57
2023/04/01 03:33:46;;;;;;;;;;;11.30;99.90;;;;;;5058597;28;19919;-57
2023/04/01 03:36:12;;;;;;;;;;;11.40;99.90;;;;;;5076450;28;20007;-57
2023/04/01 03:38:39;;;;;;;;;;;11.40;99.90;;;;;;5058658;28;20387;-57
2023/04/01 03:41:05;;;;;;;;;;;11.30;99.90;;;;;;5058349;28;20433;-57
2023/04/01 03:43:32;;;;;;;;;;;11.40;99.90;;;;;;5058562;28;19920;-57
2023/04/01 03:45:58;;;;;;;;;;;11.30;99.90;;;;;;5058501;28;19919;-57
2023/04/01 03:48:25;;;;;;;;;;;11.30;99.90;;;;;;5058371;28;20277;-57
2023/04/01 03:50:51;;;;;;;;;;;11.30;99.90;;;;;;5058374;28;19916;-57
2023/04/01 03:53:17;;;;;;;;;;;11.20;99.90;;;;;;5076183;28;20402;-57
2023/04/01 03:55:45;;;;;;;;;;;11.20;99.90;;;;;;5058104;28;19920;-57
2023/04/01 03:58:11;;;;;;;;;;;11.20;99.90;;;;;;5058178;28;20263;-57
2023/04/01 04:00:37;;;;;;;;;;;11.20;99.90;;;;;;5058334;28;19916;-57
2023/04/01 04:03:02;;;;;;;;;;;11.20;99.90;;;;;;5057944;28;19928;-57
2023/04/01 04:05:32;;;;;;;;;;;11.30;99.90;;;;;;5057876;28;20324;-57
2023/04/01 04:07:59;;;;;;;;;;;11.20;99.90;;;;;;5058042;28;19962;-57
2023/04/01 04:10:25;;;;;;;;;;;11.20;99.90;;;;;;5057837;28;19916;-57
2023/04/01 04:12:51;;;;;;;;;;;11.10;99.90;;;;;;5058026;28;19947;-57
2023/04/01 04:15:18;;;;;;;;;;;11.00;99.90;;;;;;5057774;28;20362;-57
2023/04/01 04:17:45;;;;;;;;;;;11.00;99.90;;;;;;5057653;28;19913;-57
2023/04/01 04:20:13;;;;;;;;;;;10.90;99.90;;;;;;5057798;28;19917;-57
2023/04/01 04:22:39;;;;;;;;;;;10.80;99.90;;;;;;5057634;28;19920;-57
2023/04/01 04:25:07;;;;;;;;;;;10.80;99.90;;;;;;5057332;28;19939;-57
2023/04/01 04:27:33;;;;;;;;;;;10.90;99.90;;;;;;5057708;28;19965;-57
2023/04/01 04:30:06;;;;;;;;;;;10.80;99.90;;;;;;5057424;28;20373;-57
2023/04/01 04:32:33;;;;;;;;;;;10.80;99.90;;;;;;5057377;28;19919;-57
2023/04/01 04:34:59;;;;;;;;;;;10.80;99.90;;;;;;5057555;28;19924;-57
2023/04/01 04:37:25;;;;;;;;;;;10.70;99.90;;;;;;5075473;28;19916;-57
2023/04/01 04:39:52;;;;;;;;;;;10.70;99.90;;;;;;5057462;28;20439;-57
2023/04/01 04:42:18;;;;;;;;;;;10.60;99.90;;;;;;5057468;28;20025;-57
2023/04/01 04:44:45;;;;;;;;;;;10.60;99.90;;;;;;5057344;28;19919;-57
2023/04/01 04:47:10;;;;;;;;;;;10.60;99.90;;;;;;5057040;28;19984;-57
2023/04/01 04:49:36;;;;;;;;;;;10.70;99.90;;;;;;5057314;28;19934;-57
2023/04/01 04:52:07;;;;;;;;;;;10.70;99.90;;;;;;5057217;28;19912;-57
2023/04/01 04:54:33;;;;;;;;;;;10.70;99.90;;;;;;5056872;28;19975;-57
2023/04/01 04:57:00;;;;;;;;;;;10.70;99.90;;;;;;5057355;28;19913;-57
2023/04/01 04:59:30;;;;;;;;;;;10.70;99.90;;;;;;5057108;28;19913;-57
2023/04/01 05:02:02;;;;;;;;;;;10.70;99.90;;;;;;5057035;28;19924;-57
2023/04/01 05:04:29;;;;;;;;;;;10.70;99.90;;;;;;5057092;28;19912;-57
2023/04/01 05:06:55;;;;;;;;;;;10.80;99.90;;;;;;5056800;28;19919;-57
2023/04/01 05:09:21;;;;;;;;;;;10.90;99.90;;;;;;5057032;28;19912;-57
2023/04/01 05:11:47;;;;;;;;;;;11.00;99.90;;;;;;5056977;28;19916;-57
2023/04/01 05:14:14;;;;;;;;;;;11.00;99.90;;;;;;5056836;28;19947;-57
2023/04/01 05:16:41;;;;;;;;;;;11.10;99.90;;;;;;5057052;28;19912;-57
2023/04/01 05:19:07;;;;;;;;;;;11.10;99.90;;;;;;5074964;28;20011;-57
2023/04/01 05:21:33;;;;;;;;;;;11.10;99.90;;;;;;5056585;28;20268;-57
2023/04/01 05:23:59;;;;;;;;;;;11.10;99.90;;;;;;5056830;28;19916;-57
2023/04/01 05:26:25;;;;;;;;;;;11.10;99.90;;;;;;5056874;28;19913;-57
2023/04/01 05:28:51;;;;;;;;;;;11.10;99.90;;;;;;5074650;28;19916;-57
2023/04/01 05:31:17;;;;;;;;;;;10.90;99.90;;;;;;5056930;28;19916;-57
2023/04/01 05:33:46;;;;;;;;;;;10.80;99.90;;;;;;5056917;28;20316;-57
2023/04/01 05:36:13;;;;;;;;;;;10.70;99.90;;;;;;5078479;28;19965;-57
2023/04/01 05:38:39;;;;;;;;;;;10.70;99.90;;;;;;5060856;28;19909;-57
2023/04/01 05:41:07;;;;;;;;;;;10.50;99.90;;;;;;5060705;28;20015;-57
2023/04/01 05:43:38;;;;;;;;;;;10.60;99.90;;;;;;5060832;28;20336;-57
2023/04/01 05:46:23;;;;;;;;;;;10.70;99.90;;;;;;5078647;28;19958;-57
2023/04/01 05:48:55;;;;;;;;;;;10.70;99.90;;;;;;5078544;28;19916;-57
2023/04/01 05:51:23;;;;;;;;;;;10.60;99.90;;;;;;5060561;28;20395;-57
2023/04/01 05:53:49;;;;;;;;;;;10.70;99.90;;;;;;5078497;28;19999;-57
2023/04/01 05:56:15;;;;;;;;;;;10.60;99.90;;;;;;5060294;28;19976;-57
2023/04/01 05:58:50;;;;;;;;;;;10.60;99.90;;;;;;5060668;28;19916;-57
2023/04/01 06:01:16;;;;;;;;;;;10.60;99.90;;;;;;5060489;28;19923;-57
2023/04/01 06:03:43;;;;;;;;;;;10.60;99.90;;;;;;5060378;28;20062;-57
2023/04/01 06:06:16;;;;;;;;;;;10.70;99.90;;;;;;5060245;28;19916;-57
2023/04/01 06:08:42;;;;;;;;;;;10.80;99.90;;;;;;5060284;28;19935;-57
2023/04/01 06:11:20;;;;;;;;;;;10.90;99.90;;;;;;5060190;28;19963;-57
2023/04/01 06:14:00;;;;;;;;;;;11.00;99.90;;;;;;5060188;28;19916;-57
2023/04/01 06:16:46;;;;;;;;;;;11.10;99.90;;;;;;5060143;28;19923;-57
2023/04/01 06:19:18;;;;;;;;;;;11.20;99.90;;;;;;5060124;28;20266;-57
2023/04/01 06:22:05;;;;;;;;;;;11.30;99.90;;;;;;5060086;28;19916;-57
2023/04/01 06:24:44;;;;;;;;;;;11.30;99.90;;;;;;5059949;28;20030;-57
2023/04/01 06:27:22;;;;;;;;;;;11.20;99.90;;;;;;5077855;28;19916;-57
2023/04/01 06:30:01;;;;;;;;;;;11.20;99.90;;;;;;5059987;28;19950;-57
2023/04/01 06:32:34;;;;;;;;;;;11.20;99.90;;;;;;5059592;28;19916;-57
2023/04/01 06:35:19;;;;;;;;;;;11.20;99.90;;;;;;5077786;28;20378;-57
2023/04/01 06:38:04;;;;;;;;;;;11.20;99.90;;;;;;5059916;28;19912;-57
2023/04/01 06:40:34;;;;;;;;;;;11.20;99.90;;;;;;5059623;28;20459;-57
2023/04/01 06:43:03;;;;;;;;;;;11.10;99.90;;;;;;5059583;28;19912;-57
2023/04/01 06:46:04;;;;;;;;;;;11.10;99.90;;;;;;5077222;28;19916;-57
2023/04/01 06:48:54;;;;;;;;;;;11.00;99.90;;;;;;5077863;28;19923;-57
2023/04/01 06:51:57;;;;;;;;;;;10.90;99.90;;;;;;5077558;28;19920;-57
2023/04/01 06:54:44;;;;;;;;;;;10.90;99.90;;;;;;5077113;28;19928;-57
2023/04/01 06:57:34;;;;;;;;;;;10.80;99.90;;;;;;5077763;28;20438;-57
2023/04/01 07:00:01;;;;;;;;;;;10.70;99.90;;;;;;5059406;28;19944;-57
2023/04/01 07:02:27;;;;;;;;;;;10.70;99.90;;;;;;5059403;28;19909;-57
2023/04/01 07:04:54;;;;;;;;;;;10.70;99.90;;;;;;5077402;28;19919;-57
2023/04/01 07:07:24;;;;;;;;;;;10.70;99.90;;;;;;5059216;28;20019;-57
2023/04/01 07:10:01;;;;;;;;;;;10.60;99.90;;;;;;5059103;28;19919;-57
2023/04/01 07:12:29;;;;;;;;;;;10.60;99.90;;;;;;5077355;28;20054;-57
2023/04/01 07:15:16;;;;;;;;;;;10.60;99.90;;;;;;5077131;28;19966;-57
2023/04/01 07:17:43;;;;;;;;;;;10.50;99.90;;;;;;5059051;28;20046;-57
2023/04/01 07:20:15;;;;;;;;;;;10.50;99.90;;;;;;5059064;28;19999;-57
2023/04/01 07:22:44;;;;;;;;;;;10.40;99.90;;;;;;5059009;28;19919;-57
2023/04/01 07:25:31;;;;;;;;;;;10.40;99.90;;;;;;5058838;28;19999;-57
2023/04/01 07:28:17;;;;;;;;;;;10.40;99.90;;;;;;5076014;28;20408;-57
2023/04/01 07:30:59;;;;;;;;;;;10.20;99.90;;;;;;5058642;28;20435;-57
2023/04/01 07:33:30;;;;;;;;;;;10.30;99.90;;;;;;5058918;28;20380;-57
2023/04/01 07:36:05;;;;;;;;;;;10.20;99.90;;;;;;5058421;28;19920;-57
2023/04/01 07:38:51;;;;;;;;;;;10.20;99.90;;;;;;5076730;28;19913;-57
2023/04/01 07:41:47;;;;;;;;;;;10.20;99.90;;;;;;5058691;28;19912;-57
2023/04/01 07:44:25;;;;;;;;;;;10.20;99.90;;;;;;5058296;28;19981;-57
2023/04/01 07:46:51;;;;;;;;;;;10.20;99.90;;;;;;5058310;28;19924;-57
2023/04/01 07:49:20;;;;;;;;;;;10.20;99.90;;;;;;5076443;28;20385;-57
2023/04/01 07:52:09;;;;;;;;;;;10.20;99.90;;;;;;5058303;28;19912;-57
2023/04/01 07:54:47;;;;;;;;;;;10.10;99.90;;;;;;5047111;28;20460;-57
2023/04/01 07:57:14;;;;;;;;;;;10.10;99.90;;;;;;5054441;28;19912;-57
2023/04/01 07:59:54;;;;;;;;;;;10.10;99.90;;;;;;5054981;28;19921;-57
2023/04/01 08:02:29;;;;;;;;;;;10.10;99.90;;;;;;5055013;28;19913;-57
2023/04/01 08:05:12;;;;;;;;;;;10.10;99.90;;;;;;5054608;28;19920;-57
2023/04/01 08:07:38;;;;;;;;;;;10.10;99.90;;;;;;5054841;28;19966;-57
2023/04/01 08:10:46;;;;;;;;;;;10.10;99.90;;;;;;5055715;28;19913;-57
2023/04/01 08:13:40;;;;;;;;;;;10.10;99.90;;;;;;5055696;28;19949;-57
2023/04/01 08:16:35;;;;;;;;;;;10.00;99.90;;;;;;5064698;28;19917;-57
2023/04/01 08:19:15;;;;;;;;;;;10.00;99.90;;;;;;5054463;28;19913;-57
2023/04/01 08:21:45;;;;;;;;;;;10.00;99.90;;;;;;5054504;28;19913;-57
2023/04/01 08:24:21;;;;;;;;;;;10.00;99.90;;;;;;5054485;28;19920;-57
2023/04/01 08:26:49;;;;;;;;;;;10.00;99.90;;;;;;5054258;28;19923;-57
2023/04/01 08:29:17;;;;;;;;;;;9.90;99.90;;;;;;5055804;28;20320;-57
2023/04/01 08:31:48;;;;;;;;;;;9.90;99.90;;;;;;5054416;28;19994;-57
2023/04/01 08:34:20;;;;;;;;;;;9.90;99.90;;;;;;5055364;28;19920;-57
2023/04/01 08:36:50;;;;;;;;;;;9.80;99.90;;;;;;5054089;28;19978;-57
2023/04/01 08:39:21;;;;;;;;;;;9.80;99.90;;;;;;5054150;28;20285;-57
2023/04/01 08:41:57;;;;;;;;;;;9.80;99.90;;;;;;5055409;28;20349;-57
2023/04/01 08:45:00;;;;;;;;;;;9.80;99.90;;;;;;5055451;28;20007;-57
2023/04/01 08:47:28;;;;;;;;;;;9.80;99.90;;;;;;5054019;28;19919;-57
2023/04/01 08:50:06;;;;;;;;;;;9.80;99.90;;;;;;5053944;28;20362;-57
2023/04/01 08:52:52;;;;;;;;;;;9.90;99.90;;;;;;5062046;28;19966;-57
2023/04/01 08:55:30;;;;;;;;;;;9.80;99.90;;;;;;5075022;28;19924;-57
2023/04/01 08:58:28;;;;;;;;;;;9.90;99.90;;;;;;5057215;28;19913;-57
2023/04/01 09:01:23;;;;;;;;;;;9.80;99.90;;;;;;5074349;28;19916;-57
2023/04/01 09:03:57;;;;;;;;;;;9.80;99.90;;;;;;5075151;28;19982;-57
2023/04/01 09:06:39;;;;;;;;;;;9.70;99.90;;;;;;5057034;28;19970;-57
2023/04/01 09:09:32;;;;;;;;;;;9.80;99.90;;;;;;5055757;28;19916;-57
2023/04/01 09:12:10;;;;;;;;;;;9.80;99.90;;;;;;5057032;28;20373;-57
2023/04/01 09:15:01;;;;;;;;;;;9.80;99.90;;;;;;5056922;28;19923;-57
2023/04/01 09:17:41;;;;;;;;;;;9.90;99.90;;;;;;5056913;28;19912;-57
2023/04/01 09:20:25;;;;;;;;;;;9.80;99.90;;;;;;5074827;28;19940;-57
2023/04/01 09:22:55;;;;;;;;;;;9.80;99.90;;;;;;5056967;28;19913;-57
2023/04/01 09:25:44;;;;;;;;;;;9.70;99.90;;;;;;5056725;28;19920;-57
2023/04/01 09:28:12;;;;;;;;;;;9.70;99.90;;;;;;5056438;28;20289;-57
2023/04/01 09:30:57;;;;;;;;;;;9.70;99.90;;;;;;5056649;28;20416;-57
2023/04/01 09:33:49;;;;;;;;;;;9.80;99.90;;;;;;5056915;28;19920;-57
2023/04/01 09:36:27;;;;;;;;;;;9.80;99.90;;;;;;5056620;28;19928;-57
2023/04/01 09:38:56;;;;;;;;;;;9.80;99.90;;;;;;5074678;28;20014;-57
2023/04/01 09:41:21;;;;;;;;;;;9.90;99.90;;;;;;5056684;28;20385;-57
2023/04/01 09:44:06;;;;;;;;;;;10.00;99.90;;;;;;5056492;28;20003;-57
2023/04/01 09:46:43;;;;;;;;;;;10.10;99.90;;;;;;5056695;28;19916;-57
2023/04/01 09:49:27;;;;;;;;;;;10.00;99.90;;;;;;5056534;28;19919;-57
2023/04/01 09:51:54;;;;;;;;;;;10.00;99.90;;;;;;5074620;28;19920;-57
2023/04/01 09:54:23;;;;;;;;;;;10.10;99.90;;;;;;5056331;28;19948;-57
2023/04/01 09:57:01;;;;;;;;;;;10.20;99.90;;;;;;5056592;28;20297;-57
2023/04/01 09:59:36;;;;;;;;;;;10.20;99.90;;;;;;5074271;28;19919;-57
2023/04/01 10:02:33;;;;;;;;;;;10.30;99.90;;;;;;5074373;28;19913;-57
2023/04/01 10:05:31;;;;;;;;;;;10.30;99.90;;;;;;5056287;28;20451;-57
2023/04/01 10:08:15;;;;;;;;;;;10.30;99.90;;;;;;5056204;28;20361;-57
2023/04/01 10:10:56;;;;;;;;;;;10.30;99.90;;;;;;5056398;28;19912;-57
2023/04/01 10:13:29;;;;;;;;;;;10.30;99.90;;;;;;5056287;28;20323;-57
2023/04/01 10:16:01;;;;;;;;;;;10.30;99.90;;;;;;5056393;28;19978;-57
2023/04/01 10:18:42;;;;;;;;;;;10.30;99.90;;;;;;5056371;28;19936;-57
2023/04/01 10:21:23;;;;;;;;;;;10.20;99.90;;;;;;5076131;28;20007;-57
2023/04/01 10:23:59;;;;;;;;;;;10.20;99.90;;;;;;5060186;28;19916;-57
2023/04/01 10:26:56;;;;;;;;;;;10.30;99.90;;;;;;5059992;28;20008;-57
2023/04/01 10:29:59;;;;;;;;;;;10.30;99.90;;;;;;5016705;28;19920;-57
2023/04/01 10:32:45;;;;;;;;;;;10.40;99.90;;;;;;5059895;28;20389;-57
2023/04/01 10:35:11;;;;;;;;;;;10.40;99.90;;;;;;5077599;28;20300;-57
2023/04/01 10:37:56;;;;;;;;;;;10.40;99.90;;;;;;5059837;28;19913;-57
2023/04/01 10:40:25;;;;;;;;;;;10.30;99.90;;;;;;5059876;28;19913;-57
2023/04/01 10:43:32;;;;;;;;;;;10.50;99.90;;;;;;5075260;28;19912;-57
2023/04/01 10:46:21;;;;;;;;;;;10.40;99.90;;;;;;5059724;28;19920;-57
2023/04/01 10:48:56;;;;;;;;;;;10.30;99.90;;;;;;5059145;28;19916;-57
2023/04/01 10:51:37;;;;;;;;;;;10.40;99.90;;;;;;5059772;28;19916;-57
2023/04/01 10:54:17;;;;;;;;;;;10.30;99.90;;;;;;5056141;28;19924;-57
2023/04/01 10:57:40;;;;;;;;;;;10.30;99.90;;;;;;5035005;28;20294;-57
2023/04/01 11:00:36;;;;;;;;;;;10.20;99.90;;;;;;5035073;28;19913;-57
2023/04/01 11:03:39;;;;;;;;;;;10.10;99.90;;;;;;5035009;28;19967;-57
2023/04/01 11:06:37;;;;;;;;;;;10.10;99.90;;;;;;5024506;28;19959;-57
2023/04/01 11:09:23;;;;;;;;;;;10.10;99.90;;;;;;5034396;28;19971;-57
2023/04/01 11:11:55;;;;;;;;;;;10.20;99.90;;;;;;5034612;28;20412;-57
2023/04/01 11:14:39;;;;;;;;;;;10.20;99.90;;;;;;5034692;28;19968;-57
2023/04/01 11:17:14;;;;;;;;;;;10.30;99.90;;;;;;5034361;28;19993;-57
2023/04/01 11:19:40;;;;;;;;;;;10.40;99.90;;;;;;5034756;28;19991;-57
2023/04/01 11:22:10;;;;;;;;;;;10.50;99.90;;;;;;5034478;28;19909;-57
2023/04/01 11:24:51;;;;;;;;;;;10.60;99.90;;;;;;5034296;28;19917;-57
2023/04/01 11:27:30;;;;;;;;;;;10.60;99.90;;;;;;5024770;28;19917;-57
2023/04/01 11:30:03;;;;;;;;;;;10.70;99.90;;;;;;5057055;28;19916;-57
2023/04/01 11:32:31;;;;;;;;;;;10.80;99.90;;;;;;5054366;28;20448;-57
2023/04/01 11:35:09;;;;;;;;;;;10.90;99.90;;;;;;5055391;28;19956;-57
2023/04/01 11:37:38;;;;;;;;;;;11.00;99.90;;;;;;5055306;28;19995;-57
2023/04/01 11:40:47;;;;;;;;;;;11.00;99.90;;;;;;5056600;28;20395;-57
2023/04/01 11:44:00;;;;;;;;;;;11.00;99.90;;;;;;5036808;28;19957;-58
2023/04/01 11:47:02;;;;;;;;;;;11.20;99.90;;;;;;5060475;28;19913;-57
2023/04/01 11:49:45;;;;;;;;;;;11.20;99.90;;;;;;5056498;28;20384;-57
2023/04/01 11:52:22;;;;;;;;;;;11.30;99.90;;;;;;5054966;28;19924;-57
2023/04/01 11:54:48;;;;;;;;;;;11.20;99.90;;;;;;5056337;28;19932;-57
2023/04/01 11:57:33;;;;;;;;;;;11.10;99.90;;;;;;5056390;28;19913;-57
2023/04/01 12:00:18;;;;;;;;;;;11.10;99.90;;;;;;5056159;28;20419;-57
2023/04/01 12:02:59;;;;;;;;;;;11.00;99.90;;;;;;5056260;28;19913;-57
2023/04/01 12:05:25;;;;;;;;;;;11.00;99.90;;;;;;5056098;28;19912;-57
2023/04/01 12:07:52;;;;;;;;;;;11.10;99.90;;;;;;5055929;28;19970;-57
2023/04/01 12:10:26;;;;;;;;;;;11.10;99.90;;;;;;5055889;28;19916;-57
2023/04/01 12:13:04;;;;;;;;;;;11.20;99.90;;;;;;5055638;28;19916;-57
2023/04/01 12:15:48;;;;;;;;;;;11.20;99.90;;;;;;5055870;28;19962;-58
2023/04/01 12:18:23;;;;;;;;;;;11.10;99.90;;;;;;5055782;28;19959;-57
2023/04/01 12:20:49;;;;;;;;;;;11.00;99.90;;;;;;5055816;28;19916;-58
2023/04/01 12:23:23;;;;;;;;;;;11.00;99.90;;;;;;5055753;28;19919;-57
2023/04/01 12:25:57;;;;;;;;;;;11.00;99.90;;;;;;5055711;28;20290;-57
2023/04/01 12:28:42;;;;;;;;;;;10.80;99.90;;;;;;5055643;28;19921;-57
2023/04/01 12:31:11;;;;;;;;;;;10.80;99.90;;;;;;5055724;28;20139;-57
2023/04/01 12:33:56;;;;;;;;;;;10.80;99.90;;;;;;5055609;28;19944;-57
2023/04/01 12:36:32;;;;;;;;;;;10.80;99.90;;;;;;5055340;28;19917;-57
2023/04/01 12:39:11;;;;;;;;;;;10.70;99.90;;;;;;5055607;28;19920;-57
2023/04/01 12:41:57;;;;;;;;;;;10.80;99.90;;;;;;5055426;28;20000;-57
2023/04/01 12:44:26;;;;;;;;;;;10.90;99.90;;;;;;5055199;28;19940;-58
2023/04/01 12:47:03;;;;;;;;;;;11.00;99.90;;;;;;5055440;28;20263;-58
2023/04/01 12:49:38;;;;;;;;;;;11.10;99.90;;;;;;5055198;28;19913;-58
2023/04/01 12:52:09;;;;;;;;;;;11.10;99.90;;;;;;5055247;28;20386;-58
2023/04/01 12:54:54;;;;;;;;;;;11.10;99.90;;;;;;5073439;28;19921;-57
2023/04/01 12:57:29;;;;;;;;;;;11.10;99.90;;;;;;5075402;28;19916;-58
2023/04/01 13:00:13;;;;;;;;;;;11.30;99.90;;;;;;5075605;28;19995;-58
2023/04/01 13:02:58;;;;;;;;;;;11.30;99.90;;;;;;5075131;28;19912;-58
2023/04/01 13:05:32;;;;;;;;;;;11.40;99.90;;;;;;5074924;28;20004;-57
2023/04/01 13:08:10;;;;;;;;;;;11.40;99.90;;;;;;5075056;28;20370;-58
2023/04/01 13:10:45;;;;;;;;;;;11.50;99.90;;;;;;5074866;28;19916;-58
2023/04/01 13:13:29;;;;;;;;;;;11.60;99.90;;;;;;5075033;28;20277;-58
2023/04/01 13:16:02;;;;;;;;;;;11.80;99.90;;;;;;5074937;28;19924;-58
2023/04/01 13:18:47;;;;;;;;;;;12.00;99.90;;;;;;5074846;28;19920;-58
2023/04/01 13:21:39;;;;;;;;;;;12.20;99.90;;;;;;5074971;28;20343;-58
2023/04/01 13:24:05;;;;;;;;;;;12.20;99.90;;;;;;5043954;28;19952;-58
2023/04/01 13:26:50;;;;;;;;;;;12.10;99.90;;;;;;5074684;28;19923;-58
2023/04/01 13:29:21;;;;;;;;;;;12.30;99.90;;;;;;5074700;28;19920;-58
2023/04/01 13:31:59;;;;;;;;;;;12.50;99.90;;;;;;5074734;28;19970;-58
2023/04/01 13:34:25;;;;;;;;;;;12.70;99.90;;;;;;5074774;28;19913;-58
2023/04/01 13:37:04;;;;;;;;;;;12.80;99.90;;;;;;5074730;28;19978;-58
2023/04/01 13:39:29;;;;;;;;;;;12.60;99.90;;;;;;5074503;28;19912;-58
2023/04/01 13:42:18;;;;;;;;;;;12.70;99.90;;;;;;5074878;28;19919;-58
2023/04/01 13:44:53;;;;;;;;;;;12.60;99.90;;;;;;5074548;28;19917;-58
2023/04/01 13:47:27;;;;;;;;;;;12.70;99.90;;;;;;5074430;28;19920;-58
2023/04/01 13:50:05;;;;;;;;;;;12.90;99.90;;;;;;5074682;28;19921;-58
2023/04/01 13:52:54;;;;;;;;;;;12.90;99.90;;;;;;5074462;28;19967;-58
2023/04/01 13:55:23;;;;;;;;;;;13.20;99.90;;;;;;5074950;28;19922;-58
2023/04/01 13:58:01;;;;;;;;;;;13.40;99.90;;;;;;5078527;28;20054;-58
2023/04/01 14:00:36;;;;;;;;;;;13.60;99.90;;;;;;5078361;28;19913;-58
2023/04/01 14:03:20;;;;;;;;;;;13.80;99.90;;;;;;5078435;28;20366;-58
2023/04/01 14:05:55;;;;;;;;;;;13.80;99.90;;;;;;5078245;28;20451;-58
2023/04/01 14:08:40;;;;;;;;;;;13.90;99.90;;;;;;5077988;28;20301;-58
2023/04/01 14:11:06;;;;;;;;;;;14.30;99.90;;;;;;5078319;28;19912;-58
2023/04/01 14:13:55;;;;;;;;;;;14.10;99.90;;;;;;5078101;28;19913;-58
2023/04/01 14:16:24;;;;;;;;;;;14.30;99.90;;;;;;5053135;28;19917;-58
2023/04/01 14:18:59;;;;;;;;;;;14.10;99.90;;;;;;5078142;28;19969;-58
2023/04/01 14:21:52;;;;;;;;;;;14.30;99.90;;;;;;5078212;28;19913;-58
2023/04/01 14:24:31;;;;;;;;;;;14.50;99.90;;;;;;5077941;28;20384;-58
2023/04/01 14:27:16;;;;;;;;;;;14.50;99.90;;;;;;5078046;28;20277;-58
2023/04/01 14:29:54;;;;;;;;;;;14.60;99.90;;;;;;5077900;28;19978;-58
2023/04/01 14:32:38;;;;;;;;;;;15.00;99.90;;;;;;5059847;28;19916;-58
2023/04/01 14:35:10;;;;;;;;;;;15.30;99.90;;;;;;5077840;28;19916;-58
2023/04/01 14:37:39;;;;;;;;;;;15.50;99.90;;;;;;5077684;28;19976;-58
2023/04/01 14:40:24;;;;;;;;;;;15.20;99.90;;;;;;5077701;28;19923;-58
2023/04/01 14:42:58;;;;;;;;;;;15.30;99.90;;;;;;5077538;28;20360;-58
2023/04/01 14:45:42;;;;;;;;;;;15.30;99.90;;;;;;5077781;28;20011;-58
2023/04/01 14:48:27;;;;;;;;;;;15.30;99.90;;;;;;5077751;28;19924;-58
2023/04/01 14:51:01;;;;;;;;;;;15.20;99.90;;;;;;5077559;28;20431;-58
2023/04/01 14:53:29;;;;;;;;;;;15.00;99.90;;;;;;5077729;28;19995;-58
2023/04/01 14:55:56;;;;;;;;;;;15.10;99.90;;;;;;5077776;28;19920;-58
2023/04/01 14:58:25;;;;;;;;;;;15.10;99.90;;;;;;5077482;28;19970;-58
2023/04/01 15:00:53;;;;;;;;;;;15.20;99.90;;;;;;5059439;28;19912;-58